Time,TemperatureF,DewpointF,PressureIn,WindDirection,WindDirectionDegrees,WindSpeedMPH,WindSpeedGustMPH,Humidity,HourlyPrecipIn,Conditions,Clouds,dailyrainin,SoftwareType,DateUTC
2013-07-19 01:33:00,80.0,80.0,-100.00,North,355,0.0,0.0,99,-99.99,,,-99.99,,2013-07-19 06:33:00,
2013-07-19 01:43:00,80.0,80.0,-100.00,North,355,0.0,0.0,99,-99.99,,,-99.99,,2013-07-19 06:43:00,
2013-07-19 01:52:00,80.0,80.0,-100.00,North,355,0.0,0.0,99,-99.99,,,-99.99,,2013-07-19 06:52:00,
2013-07-19 02:12:00,80.0,79.0,-100.00,North,355,0.0,0.0,99,-99.99,,,-99.99,,2013-07-19 07:12:00,
2013-07-19 02:22:00,80.0,79.0,-100.00,North,355,0.0,0.0,99,-99.99,,,-99.99,,2013-07-19 07:22:00,
2013-07-19 02:32:00,80.0,79.0,-100.00,North,355,0.0,0.0,99,-99.99,,,-99.99,,2013-07-19 07:32:00,
2013-07-19 02:43:00,80.0,79.0,-100.00,North,355,0.0,0.0,99,-99.99,,,-99.99,,2013-07-19 07:43:00,
2013-07-19 02:53:00,80.0,79.0,-100.00,North,355,0.0,0.0,99,-99.99,,,-99.99,,2013-07-19 07:53:00,
2013-07-19 03:11:00,80.0,79.0,-100.00,North,355,0.0,0.0,99,-99.99,,,-99.99,,2013-07-19 08:11:00,
2013-07-19 03:22:00,80.0,79.0,-100.00,North,355,0.0,0.0,99,-99.99,,,-99.99,,2013-07-19 08:22:00,
2013-07-19 03:33:00,80.0,79.0,-100.00,North,355,0.0,0.0,99,-99.99,,,-99.99,,2013-07-19 08:33:00,
2013-07-19 03:43:00,80.0,79.0,-100.00,North,355,0.0,0.0,99,-99.99,,,-99.99,,2013-07-19 08:43:00,
2013-07-19 03:52:00,80.0,79.0,-100.00,North,355,0.0,0.0,99,-99.99,,,-99.99,,2013-07-19 08:52:00,
2013-07-19 04:11:00,78.0,78.0,-100.00,North,355,0.0,0.0,99,-99.99,,,-99.99,,2013-07-19 09:11:00,
2013-07-19 04:22:00,78.0,78.0,-100.00,North,355,0.0,0.0,99,-99.99,,,-99.99,,2013-07-19 09:22:00,
2013-07-19 04:32:00,78.0,78.0,-100.00,North,355,0.0,0.0,99,-99.99,,,-99.99,,2013-07-19 09:32:00,
2013-07-19 10:11:00,87.0,80.0,-100.00,North,355,0.0,0.0,80,-99.99,,,-99.99,,2013-07-19 15:11:00,
2013-07-19 10:32:00,87.0,79.0,-100.00,North,355,0.0,0.0,79,-99.99,,,-99.99,,2013-07-19 15:32:00,
2013-07-19 10:43:00,87.0,79.0,-100.00,North,355,0.0,0.0,79,-99.99,,,-99.99,,2013-07-19 15:43:00,
2013-07-19 10:52:00,87.0,79.0,-100.00,North,355,0.0,0.0,79,-99.99,,,-99.99,,2013-07-19 15:52:00,
2013-07-19 12:32:00,90.0,78.0,-100.00,North,355,0.0,0.0,69,-99.99,,,-99.99,,2013-07-19 17:32:00,
2013-07-19 12:43:00,90.0,78.0,-100.00,North,355,0.0,0.0,69,-99.99,,,-99.99,,2013-07-19 17:43:00,
2013-07-19 12:52:00,90.0,78.0,-100.00,North,355,0.0,0.0,69,-99.99,,,-99.99,,2013-07-19 17:52:00,
2013-07-19 13:11:00,89.0,79.0,-100.00,North,355,0.0,0.0,71,-99.99,,,-99.99,,2013-07-19 18:11:00,
2013-07-19 13:22:00,89.0,79.0,-100.00,North,355,0.0,0.0,71,-99.99,,,-99.99,,2013-07-19 18:22:00,
2013-07-19 13:52:00,89.0,79.0,-100.00,North,355,0.0,0.0,71,-99.99,,,-99.99,,2013-07-19 18:52:00,
2013-07-19 14:32:00,90.0,79.0,-100.00,North,355,0.0,0.0,71,-99.99,,,-99.99,,2013-07-19 19:32:00,
2013-07-19 14:43:00,90.0,79.0,-100.00,North,355,0.0,0.0,71,-99.99,,,-99.99,,2013-07-19 19:43:00,
2013-07-19 14:52:00,90.0,79.0,-100.00,North,355,0.0,0.0,71,-99.99,,,-99.99,,2013-07-19 19:52:00,
2013-07-19 20:11:00,87.0,79.0,-100.00,North,355,0.0,0.0,79,-99.99,,,-99.99,,2013-07-20 01:11:00,
2013-07-19 20:32:00,87.0,79.0,-100.00,North,355,0.0,0.0,79,-99.99,,,-99.99,,2013-07-20 01:32:00,
2013-07-19 20:52:00,87.0,79.0,-100.00,North,355,0.0,0.0,79,-99.99,,,-99.99,,2013-07-20 01:52:00,
2013-07-19 21:11:00,84.0,79.0,-100.00,North,355,0.0,0.0,84,-99.99,,,-99.99,,2013-07-20 02:11:00,
2013-07-19 21:22:00,84.0,79.0,-100.00,North,355,0.0,0.0,84,-99.99,,,-99.99,,2013-07-20 02:22:00,
2013-07-19 21:33:00,84.0,79.0,-100.00,North,355,0.0,0.0,84,-99.99,,,-99.99,,2013-07-20 02:33:00,